Impacts TAF Board INFO
FOR SITUATIONAL AWARENESS. NOT TO BE USED FOR FLIGHT PLANNING PURPOSES.
IDs:

KDFW - Dallas-Ft Worth Intl, TX, US

Issued at 2059 UTC 12 Dec 2017
Updated at 2127 UTC 12 Dec 2017
Potential Impact None Slight Moderate High
Time2053Z 12/22Z 12/23Z 13/00Z 13/01Z 13/02Z 13/03Z 13/04Z 13/05Z 13/06Z 13/07Z 13/08Z 13/09Z 13/10Z>>
Type OBS PRVL PRVL PRVL PRVL PRVL PRVL PRVL PRVL PRVL PRVL PRVL PRVL PRVL
VIS 10 >6 >6 >6 >6 >6 >6 >6 >6 >6 >6 >6 >6 >6
CIG -- -- -- -- -- -- -- -- -- -- -- -- -- --
Cover CLR SKC SKC SKC SKC SKC SKC SKC SKC SKC SKC SKC SKC SKC
FltCat VFR VFR VFR VFR VFR VFR VFR VFR VFR VFR VFR VFR VFR VFR
WX -- -- -- -- -- -- -- -- -- -- -- -- -- --
WDir 310 320 320 320 320 320 250 250 250 250 250 250 250 250
WSpd 9 9 9 9 9 9 5 5 5 5 5 5 5 5
WGst -- -- -- -- -- -- -- -- -- -- -- -- -- --

Raw TAF
KDFW 122059Z 1221/1324 32009KT P6SM SKC
  FM130300 25005KT P6SM SKC
  FM131600 21011KT P6SM SKC


Raw METAR
KDFW 122053Z 31009KT 10SM CLR 14/M04 A3030 RMK AO2 SLP258 T01391039 56034
KDFW 121953Z 33012G18KT 10SM CLR 13/M04 A3032 RMK AO2 SLP264 T01331044
KDFW 121853Z 34010KT 10SM CLR 12/M03 A3036 RMK AO2 SLP278 T01221028 $

METAR Board
Radar Display
Forecast Discussion

FOR SITUATIONAL AWARENESS. NOT TO BE USED FOR FLIGHT PLANNING PURPOSES.